Time;durP1;ratioP1;P1;durP2;ratioP2;P2;SDS_P1;SDS_P2;PMS_P1;PMS_P2;Temp;Humidity;BMP_temperature;BMP_pressure;BME280_temperature;BME280_humidity;BME280_pressure;Samples;Min_cycle;Max_cycle;Signal;HPM_P1;HPM_P2
2020/12/11 00:00:06;;;;;;;19.20;13.63;;;4.20;99.90;;;;;;4898640;29;20547;-83
2020/12/11 00:02:35;;;;;;;17.23;12.77;;;4.10;99.90;;;;;;4900558;29;20183;-83
2020/12/11 00:05:04;;;;;;;20.20;14.00;;;4.10;99.90;;;;;;4899625;29;20222;-81
2020/12/11 00:07:34;;;;;;;17.70;14.07;;;4.00;99.90;;;;;;4899879;29;20171;-83
2020/12/11 00:10:01;;;;;;;18.80;13.27;;;4.10;99.90;;;;;;4897860;29;20170;-82
2020/12/11 00:12:26;;;;;;;19.17;13.73;;;4.10;99.90;;;;;;4899595;29;20275;-84
2020/12/11 00:14:52;;;;;;;17.10;13.17;;;4.00;99.90;;;;;;4902625;29;20175;-82
2020/12/11 00:17:18;;;;;;;17.77;13.67;;;4.00;99.90;;;;;;4905538;29;20242;-84
2020/12/11 00:19:43;;;;;;;18.50;13.87;;;3.90;99.90;;;;;;4902432;29;20185;-83
2020/12/11 00:22:14;;;;;;;17.67;13.17;;;4.00;99.90;;;;;;4905608;29;20209;-83
2020/12/11 00:24:41;;;;;;;18.13;13.17;;;3.90;99.90;;;;;;4905476;29;20174;-84
2020/12/11 00:27:08;;;;;;;16.97;13.33;;;3.90;99.90;;;;;;4898799;29;20186;-84
2020/12/11 00:29:33;;;;;;;17.60;13.60;;;3.80;99.90;;;;;;4881861;29;20610;-84
2020/12/11 00:32:03;;;;;;;17.43;13.13;;;3.80;99.90;;;;;;4881430;29;20218;-83
2020/12/11 00:34:33;;;;;;;17.07;13.33;;;3.80;99.90;;;;;;4887818;29;20175;-82
2020/12/11 00:37:00;;;;;;;18.87;13.47;;;3.80;99.90;;;;;;4883410;29;20590;-84
2020/12/11 00:39:26;;;;;;;19.40;14.63;;;3.80;99.90;;;;;;4881503;29;20183;-83
2020/12/11 00:41:51;;;;;;;19.53;13.87;;;3.80;99.90;;;;;;4879826;29;20282;-83
2020/12/11 00:44:17;;;;;;;17.80;14.17;;;3.80;99.90;;;;;;4891360;29;20167;-82
2020/12/11 00:46:43;;;;;;;16.73;13.60;;;3.80;99.90;;;;;;4902632;29;20190;-80
2020/12/11 00:49:09;;;;;;;18.13;13.60;;;3.80;99.90;;;;;;4902364;29;20194;-80
2020/12/11 00:51:34;;;;;;;18.27;13.60;;;3.80;99.90;;;;;;4903050;29;20159;-81
2020/12/11 00:54:12;;;;;;;21.50;13.87;;;3.90;99.90;;;;;;4901417;29;20198;-82
2020/12/11 00:56:51;;;;;;;19.10;13.90;;;4.00;99.90;;;;;;4893356;29;20179;-84
2020/12/11 00:59:37;;;;;;;19.80;14.80;;;3.90;99.90;;;;;;4892739;29;20179;-83
2020/12/11 01:02:41;;;;;;;17.97;13.27;;;3.90;99.90;;;;;;4890553;29;20166;-82
2020/12/11 01:05:07;;;;;;;21.30;14.13;;;4.00;99.90;;;;;;4887848;29;20166;-83
2020/12/11 01:07:32;;;;;;;17.77;13.73;;;4.00;99.90;;;;;;4881417;29;20175;-82
2020/12/11 01:09:59;;;;;;;17.77;13.40;;;3.90;99.90;;;;;;4886796;29;20180;-83
2020/12/11 01:12:26;;;;;;;18.20;13.87;;;3.90;99.90;;;;;;4900437;29;20207;-83
2020/12/11 01:14:51;;;;;;;18.87;13.57;;;3.90;99.90;;;;;;4892743;29;20186;-83
2020/12/11 01:17:20;;;;;;;18.13;13.97;;;3.90;99.90;;;;;;4886225;29;20171;-83
2020/12/11 01:19:49;;;;;;;17.33;13.83;;;3.90;99.90;;;;;;4885889;29;20167;-83
2020/12/11 01:22:15;;;;;;;19.23;13.57;;;3.90;99.90;;;;;;4883314;29;20178;-83
2020/12/11 01:24:40;;;;;;;17.43;12.93;;;3.80;99.90;;;;;;4884846;29;20175;-83
2020/12/11 01:27:06;;;;;;;18.27;13.47;;;3.90;99.90;;;;;;4883540;29;20182;-84
2020/12/11 01:29:31;;;;;;;18.47;13.73;;;3.90;99.90;;;;;;4884475;29;20174;-84
2020/12/11 01:32:00;;;;;;;18.20;12.80;;;3.90;99.90;;;;;;4883910;29;20183;-84
2020/12/11 01:34:26;;;;;;;17.07;13.10;;;3.90;99.90;;;;;;4882922;29;20239;-83
2020/12/11 01:36:52;;;;;;;18.50;13.83;;;3.90;99.90;;;;;;4882839;29;20190;-83
2020/12/11 01:39:18;;;;;;;16.23;11.77;;;4.00;99.90;;;;;;4883908;29;20183;-83
2020/12/11 01:41:44;;;;;;;20.90;15.07;;;4.00;99.90;;;;;;4883982;29;20706;-82
2020/12/11 01:44:10;;;;;;;17.53;12.90;;;3.80;99.90;;;;;;4885730;29;20540;-83
2020/12/11 01:46:40;;;;;;;17.27;13.20;;;3.90;99.90;;;;;;4893680;29;20171;-83
2020/12/11 01:49:11;;;;;;;20.90;12.77;;;3.80;99.90;;;;;;4897488;29;20176;-82
2020/12/11 01:51:37;;;;;;;15.87;11.97;;;3.80;99.90;;;;;;4894999;29;20242;-83
2020/12/11 01:54:04;;;;;;;17.60;12.77;;;3.70;99.90;;;;;;4897301;29;20261;-83
2020/12/11 01:56:33;;;;;;;15.50;11.97;;;3.60;99.90;;;;;;4897071;29;20171;-81
2020/12/11 01:59:04;;;;;;;17.47;12.97;;;3.60;99.90;;;;;;4887814;29;20179;-81
2020/12/11 02:01:35;;;;;;;16.93;12.33;;;3.60;99.90;;;;;;4881635;29;20231;-84
2020/12/11 02:04:03;;;;;;;16.50;12.37;;;3.60;99.90;;;;;;4882738;29;20186;-82
2020/12/11 02:06:29;;;;;;;16.63;13.33;;;3.50;99.90;;;;;;4882117;29;20230;-82
2020/12/11 02:08:58;;;;;;;17.77;13.23;;;3.60;99.90;;;;;;4882155;29;20617;-83
2020/12/11 02:11:24;;;;;;;16.70;13.30;;;3.70;99.90;;;;;;4882652;29;20183;-83
2020/12/11 02:13:51;;;;;;;16.33;12.60;;;3.70;99.90;;;;;;4881093;29;20222;-83
2020/12/11 02:16:24;;;;;;;17.73;13.87;;;3.70;99.90;;;;;;4882552;29;20230;-82
2020/12/11 02:18:50;;;;;;;17.90;12.83;;;3.80;99.90;;;;;;4882145;29;20179;-82
2020/12/11 02:21:16;;;;;;;16.53;12.80;;;3.80;99.90;;;;;;4890646;29;20195;-82
2020/12/11 02:23:43;;;;;;;18.30;12.93;;;3.80;99.90;;;;;;4884516;29;20190;-82
2020/12/11 02:26:10;;;;;;;16.83;12.87;;;3.80;99.90;;;;;;4882703;29;20554;-83
2020/12/11 02:28:36;;;;;;;17.20;12.80;;;3.80;99.90;;;;;;4882430;29;20190;-84
2020/12/11 02:31:03;;;;;;;17.60;12.27;;;3.80;99.90;;;;;;4882198;29;20253;-84
2020/12/11 02:33:29;;;;;;;15.97;12.30;;;3.80;99.90;;;;;;4881120;29;20226;-83
2020/12/11 02:35:56;;;;;;;16.83;13.07;;;3.70;99.90;;;;;;4883940;29;20623;-82
2020/12/11 02:38:23;;;;;;;17.90;12.83;;;3.80;99.90;;;;;;4905194;29;20167;-80
2020/12/11 02:40:51;;;;;;;18.67;12.90;;;3.80;99.90;;;;;;4905009;29;20183;-80
2020/12/11 02:43:18;;;;;;;19.27;13.23;;;3.70;99.90;;;;;;4903873;29;20210;-81
2020/12/11 02:45:49;;;;;;;16.47;12.13;;;3.80;99.90;;;;;;4902935;29;20179;-80
2020/12/11 02:48:15;;;;;;;16.80;12.77;;;3.80;99.90;;;;;;4895549;29;20643;-83
2020/12/11 02:50:42;;;;;;;15.53;12.43;;;3.80;99.90;;;;;;4898420;29;20171;-80
2020/12/11 02:53:07;;;;;;;16.27;11.97;;;3.80;99.90;;;;;;4903765;29;20241;-82
2020/12/11 02:55:39;;;;;;;15.47;12.50;;;3.80;99.90;;;;;;4903559;29;20179;-84
2020/12/11 02:58:08;;;;;;;15.90;12.70;;;3.90;99.90;;;;;;4896670;29;20167;-82
2020/12/11 03:00:35;;;;;;;18.93;12.80;;;3.80;99.90;;;;;;4904476;29;20203;-81
2020/12/11 03:03:31;;;;;;;16.90;12.73;;;3.90;99.90;;;;;;4899390;29;20175;-84
2020/12/11 03:06:02;;;;;;;17.07;12.30;;;3.90;99.90;;;;;;4888124;29;20190;-83
2020/12/11 03:08:34;;;;;;;16.50;11.90;;;3.80;99.90;;;;;;4883133;29;20235;-84
2020/12/11 03:11:00;;;;;;;15.57;11.73;;;3.80;99.90;;;;;;4883400;29;20179;-85
2020/12/11 03:13:26;;;;;;;15.00;11.50;;;3.90;99.90;;;;;;4881488;29;20671;-84
2020/12/11 03:15:51;;;;;;;15.03;10.93;;;3.90;99.90;;;;;;4882145;29;20167;-83
2020/12/11 03:18:18;;;;;;;16.77;12.10;;;3.80;99.90;;;;;;4881858;29;20171;-84
2020/12/11 03:20:44;;;;;;;16.20;12.33;;;3.90;99.90;;;;;;4888704;29;20188;-82
2020/12/11 03:23:11;;;;;;;16.07;11.63;;;4.00;99.90;;;;;;4903579;29;20163;-83
2020/12/11 03:25:37;;;;;;;14.60;10.50;;;4.00;99.90;;;;;;4903798;29;20166;-81
2020/12/11 03:28:03;;;;;;;15.30;11.27;;;3.90;99.90;;;;;;4904805;29;20163;-79
2020/12/11 03:30:29;;;;;;;15.20;11.50;;;4.00;99.90;;;;;;4897892;29;20179;-81
2020/12/11 03:32:55;;;;;;;17.20;11.37;;;4.00;99.90;;;;;;4890502;29;20202;-81
2020/12/11 03:35:25;;;;;;;15.93;12.17;;;4.10;99.90;;;;;;4886017;29;20246;-81
2020/12/11 03:37:59;;;;;;;14.07;11.27;;;4.00;99.90;;;;;;4879803;29;20281;-80
2020/12/11 03:40:25;;;;;;;17.63;12.00;;;4.00;99.90;;;;;;4880688;29;20179;-81
2020/12/11 03:42:51;;;;;;;17.00;12.60;;;4.00;99.90;;;;;;4879544;29;20670;-82
2020/12/11 03:45:16;;;;;;;16.77;12.23;;;4.00;99.90;;;;;;4879351;29;20545;-84
2020/12/11 03:47:43;;;;;;;16.70;11.93;;;4.10;99.90;;;;;;4880598;29;20663;-83
2020/12/11 03:50:09;;;;;;;15.60;12.07;;;4.10;99.90;;;;;;4902329;29;20195;-79
2020/12/11 03:52:34;;;;;;;17.40;12.33;;;4.10;99.90;;;;;;4892921;29;20203;-81
2020/12/11 03:55:01;;;;;;;15.23;11.20;;;4.10;99.90;;;;;;4886599;29;20182;-80
2020/12/11 03:57:30;;;;;;;17.77;11.77;;;4.20;99.90;;;;;;4884271;29;20179;-83
2020/12/11 03:59:55;;;;;;;16.50;10.73;;;4.30;99.90;;;;;;4893772;29;20182;-83
2020/12/11 04:02:21;;;;;;;16.60;11.27;;;4.20;99.90;;;;;;4894669;29;20179;-82
2020/12/11 04:04:47;;;;;;;16.43;11.90;;;4.20;99.90;;;;;;4895408;29;20190;-82
2020/12/11 04:07:13;;;;;;;15.60;11.40;;;4.10;99.90;;;;;;4884158;29;20179;-84
2020/12/11 04:09:39;;;;;;;16.47;11.37;;;4.10;99.90;;;;;;4895601;29;20223;-80
2020/12/11 04:12:05;;;;;;;14.80;10.40;;;4.20;99.90;;;;;;4903957;29;20233;-81
2020/12/11 04:14:31;;;;;;;14.97;10.80;;;4.20;99.90;;;;;;4896975;29;20174;-81
2020/12/11 04:17:00;;;;;;;14.67;10.90;;;4.20;99.90;;;;;;4889747;29;20707;-83
2020/12/11 04:19:29;;;;;;;14.27;10.97;;;4.20;99.90;;;;;;4878947;29;20179;-82
2020/12/11 04:21:55;;;;;;;14.10;10.60;;;4.20;99.90;;;;;;4879013;29;20175;-83
2020/12/11 04:24:22;;;;;;;14.23;10.83;;;4.30;99.90;;;;;;4894831;29;20277;-83
2020/12/11 04:26:48;;;;;;;13.83;10.10;;;4.30;99.90;;;;;;4880271;29;20173;-84
2020/12/11 04:29:14;;;;;;;14.93;10.53;;;4.40;99.90;;;;;;4879308;29;20178;-82
2020/12/11 04:31:40;;;;;;;14.63;10.30;;;4.50;99.90;;;;;;4880047;29;20640;-83
2020/12/11 04:34:07;;;;;;;12.63;9.73;;;4.60;99.90;;;;;;4880165;29;20218;-84
2020/12/11 04:36:32;;;;;;;15.70;10.37;;;4.50;99.90;;;;;;4879125;29;20183;-83
2020/12/11 04:38:58;;;;;;;14.30;10.37;;;4.60;99.90;;;;;;4880469;29;20185;-83
2020/12/11 04:41:29;;;;;;;14.07;10.37;;;4.60;99.90;;;;;;4878760;29;20218;-81
2020/12/11 04:43:56;;;;;;;15.50;10.03;;;4.60;99.90;;;;;;4863930;29;20183;-84
2020/12/11 04:46:28;;;;;;;13.53;10.00;;;4.80;99.90;;;;;;4879495;29;20175;-84
2020/12/11 04:48:55;;;;;;;14.07;10.50;;;4.70;99.90;;;;;;4888235;29;20185;-84
2020/12/11 04:51:23;;;;;;;11.73;9.20;;;4.70;99.90;;;;;;4892147;29;20183;-84
2020/12/11 04:53:52;;;;;;;12.27;9.40;;;4.70;99.90;;;;;;4884169;29;20223;-83
2020/12/11 04:56:22;;;;;;;13.43;9.73;;;4.70;99.90;;;;;;4884647;29;20178;-84
2020/12/11 04:58:50;;;;;;;14.30;9.83;;;4.70;99.90;;;;;;4884811;29;20270;-83
2020/12/11 05:01:32;;;;;;;11.70;9.50;;;4.70;99.90;;;;;;4884806;29;20182;-83
2020/12/11 05:04:00;;;;;;;13.10;9.37;;;4.60;99.90;;;;;;4884885;29;20202;-82
2020/12/11 05:06:27;;;;;;;13.63;9.23;;;4.70;99.90;;;;;;4886746;29;20239;-82
2020/12/11 05:09:12;;;;;;;11.97;8.97;;;4.70;99.90;;;;;;4887859;29;20179;-81
2020/12/11 05:11:39;;;;;;;11.77;8.60;;;4.70;99.90;;;;;;4893265;29;20189;-82
2020/12/11 05:14:05;;;;;;;11.40;9.33;;;4.70;99.90;;;;;;4891533;29;20210;-80
2020/12/11 05:16:30;;;;;;;11.03;9.03;;;4.90;99.90;;;;;;4894995;29;20175;-81
2020/12/11 05:19:04;;;;;;;10.97;8.60;;;5.00;99.90;;;;;;4892024;29;20193;-82
2020/12/11 05:21:32;;;;;;;11.80;8.53;;;5.10;99.90;;;;;;4889934;29;20653;-82
2020/12/11 05:24:00;;;;;;;12.50;8.50;;;5.00;99.90;;;;;;4883825;29;20179;-83
2020/12/11 05:26:29;;;;;;;9.90;8.07;;;5.10;99.90;;;;;;4884225;29;20179;-83
2020/12/11 05:28:56;;;;;;;11.37;8.10;;;5.10;99.90;;;;;;4882603;29;20186;-83
2020/12/11 05:31:22;;;;;;;9.53;7.53;;;5.00;99.90;;;;;;4884515;29;20197;-83
2020/12/11 05:34:13;;;;;;;10.03;8.13;;;5.00;99.90;;;;;;4885661;29;20735;-83
2020/12/11 05:36:50;;;;;;;9.47;7.37;;;5.10;99.90;;;;;;4899195;29;20719;-83
2020/12/11 05:39:34;;;;;;;11.53;8.03;;;5.00;99.90;;;;;;4883928;29;20186;-82
2020/12/11 05:42:02;;;;;;;8.80;7.37;;;5.20;99.90;;;;;;4892038;29;20214;-82
2020/12/11 05:44:33;;;;;;;10.07;8.00;;;5.10;99.90;;;;;;4887569;29;20195;-84
2020/12/11 05:47:15;;;;;;;10.73;7.47;;;5.10;99.90;;;;;;4882828;29;20659;-83
2020/12/11 05:49:42;;;;;;;9.30;6.80;;;5.10;99.90;;;;;;4883591;29;20171;-84
2020/12/11 05:52:11;;;;;;;9.90;6.83;;;5.10;99.90;;;;;;4883026;29;20182;-81
2020/12/11 05:54:53;;;;;;;11.77;7.83;;;5.10;99.90;;;;;;4897244;29;20179;-83
2020/12/11 05:57:20;;;;;;;8.77;7.27;;;5.20;99.90;;;;;;4881540;29;20194;-80
2020/12/11 05:59:46;;;;;;;9.17;6.90;;;5.10;99.90;;;;;;4880720;29;20183;-80
2020/12/11 06:02:16;;;;;;;8.77;6.23;;;5.10;99.90;;;;;;4881327;29;20243;-83
2020/12/11 06:04:43;;;;;;;8.53;6.53;;;5.20;99.90;;;;;;4881551;29;20241;-84
2020/12/11 06:07:11;;;;;;;8.47;6.80;;;5.20;99.90;;;;;;4881789;29;20178;-83
2020/12/11 06:09:38;;;;;;;7.70;6.50;;;5.10;99.90;;;;;;4881305;29;20554;-82
2020/12/11 06:12:06;;;;;;;8.77;7.03;;;5.20;99.90;;;;;;4881076;29;20209;-80
2020/12/11 06:14:58;;;;;;;8.97;6.70;;;5.20;99.90;;;;;;4881563;29;20187;-85
2020/12/11 06:17:26;;;;;;;7.77;6.60;;;5.30;99.90;;;;;;4881441;29;20175;-82
2020/12/11 06:19:55;;;;;;;8.67;6.63;;;5.30;99.90;;;;;;4881008;29;20175;-81
2020/12/11 06:22:22;;;;;;;9.17;6.90;;;5.20;99.90;;;;;;4882004;29;20191;-82
2020/12/11 06:24:48;;;;;;;8.40;6.53;;;5.20;99.90;;;;;;4880267;29;20179;-83
2020/12/11 06:27:13;;;;;;;7.73;6.40;;;5.30;99.90;;;;;;4879481;29;20179;-84
2020/12/11 06:29:42;;;;;;;8.83;6.60;;;5.20;99.90;;;;;;4880804;29;20175;-83
2020/12/11 06:32:09;;;;;;;7.93;7.03;;;5.30;99.90;;;;;;4882517;29;20226;-80
2020/12/11 06:34:35;;;;;;;7.33;5.70;;;5.30;99.90;;;;;;4881271;29;20187;-80
2020/12/11 06:37:01;;;;;;;7.70;5.83;;;5.20;99.90;;;;;;4881913;29;20623;-83
2020/12/11 06:39:46;;;;;;;7.97;6.07;;;5.30;99.90;;;;;;4891050;29;20182;-84
2020/12/11 06:42:39;;;;;;;6.60;5.50;;;5.30;99.90;;;;;;4901531;29;20214;-84
2020/12/11 06:45:25;;;;;;;6.87;5.63;;;5.30;99.90;;;;;;4910715;29;20229;-81
2020/12/11 06:47:52;;;;;;;8.37;5.23;;;5.40;99.90;;;;;;4921206;29;20175;-79
2020/12/11 06:50:19;;;;;;;7.77;6.03;;;5.40;99.90;;;;;;4906828;29;20201;-79
2020/12/11 06:52:46;;;;;;;7.77;5.37;;;5.40;99.90;;;;;;4906442;29;20218;-81
2020/12/11 06:55:12;;;;;;;6.47;5.33;;;5.30;99.90;;;;;;4909760;29;20163;-81
2020/12/11 06:57:39;;;;;;;7.17;5.80;;;5.30;99.90;;;;;;4907890;29;20186;-78
2020/12/11 07:00:25;;;;;;;7.13;5.60;;;5.30;99.90;;;;;;4903499;29;20238;-80
2020/12/11 07:03:16;;;;;;;7.07;5.50;;;5.40;99.90;;;;;;4903099;29;20163;-85
2020/12/11 07:05:43;;;;;;;6.10;5.03;;;5.40;99.90;;;;;;4900571;29;20647;-76
2020/12/11 07:08:16;;;;;;;9.03;5.27;;;5.50;99.90;;;;;;4921606;29;20171;-77
2020/12/11 07:10:46;;;;;;;10.23;5.50;;;5.50;99.90;;;;;;4918326;29;20182;-78
2020/12/11 07:13:12;;;;;;;7.83;5.40;;;5.50;99.90;;;;;;4921769;29;20209;-82
2020/12/11 07:15:38;;;;;;;7.67;5.80;;;5.50;99.90;;;;;;4920483;29;20158;-81
2020/12/11 07:18:16;;;;;;;6.23;5.20;;;5.60;99.90;;;;;;4919612;29;20178;-85
2020/12/11 07:20:58;;;;;;;7.07;5.03;;;5.70;99.90;;;;;;4917149;29;20174;-83
2020/12/11 07:23:31;;;;;;;7.50;5.47;;;5.70;99.90;;;;;;4910250;29;20171;-83
2020/12/11 07:26:04;;;;;;;5.90;5.03;;;5.60;99.90;;;;;;4901635;29;20234;-81
2020/12/11 07:28:33;;;;;;;6.83;5.50;;;5.70;99.90;;;;;;4900117;29;20268;-80
2020/12/11 07:30:59;;;;;;;8.17;5.07;;;5.80;99.90;;;;;;4908343;29;20196;-81
2020/12/11 07:33:32;;;;;;;6.00;5.20;;;5.70;99.90;;;;;;4916485;29;20226;-83
2020/12/11 07:36:00;;;;;;;7.97;5.00;;;5.70;99.90;;;;;;4919585;29;20216;-80
2020/12/11 07:38:27;;;;;;;6.63;5.37;;;5.70;99.90;;;;;;4921726;29;20185;-80
2020/12/11 07:40:57;;;;;;;7.87;5.40;;;5.70;99.90;;;;;;4907986;29;20206;-82
2020/12/11 07:43:24;;;;;;;6.97;5.17;;;5.80;99.90;;;;;;4901177;29;20189;-87
2020/12/11 07:45:50;;;;;;;6.17;5.10;;;5.80;99.90;;;;;;4899465;29;20305;-82
2020/12/11 07:48:16;;;;;;;6.93;4.97;;;5.90;99.90;;;;;;4897350;29;20193;-82
2020/12/11 07:50:42;;;;;;;5.40;4.50;;;6.00;99.90;;;;;;4899633;29;20171;-87
2020/12/11 07:53:09;;;;;;;6.40;4.23;;;6.10;99.90;;;;;;4901366;29;20202;-86
2020/12/11 07:55:36;;;;;;;5.27;4.40;;;6.00;99.90;;;;;;4899566;29;20665;-86
2020/12/11 07:58:03;;;;;;;5.37;4.23;;;5.90;99.90;;;;;;4898274;29;20285;-81
2020/12/11 08:00:34;;;;;;;5.17;4.30;;;5.90;99.90;;;;;;4897186;29;20190;-85
2020/12/11 08:03:05;;;;;;;6.90;4.70;;;6.00;99.90;;;;;;4897932;29;20189;-83
2020/12/11 08:05:32;;;;;;;5.20;4.20;;;6.00;99.90;;;;;;4898747;29;20646;-83
2020/12/11 08:07:58;;;;;;;4.30;3.60;;;5.90;99.90;;;;;;4901224;29;20178;-80
2020/12/11 08:10:33;;;;;;;6.20;4.07;;;5.80;99.90;;;;;;4900007;29;20247;-83
2020/12/11 08:13:11;;;;;;;5.43;3.93;;;5.70;99.90;;;;;;4898078;29;20296;-80
2020/12/11 08:15:38;;;;;;;5.63;4.20;;;5.70;99.90;;;;;;4899244;29;20242;-86
2020/12/11 08:18:20;;;;;;;5.77;4.43;;;5.70;99.90;;;;;;4899095;29;20253;-84
2020/12/11 08:20:52;;;;;;;6.63;4.17;;;5.70;99.90;;;;;;4896701;29;20726;-83
2020/12/11 08:23:28;;;;;;;5.93;4.50;;;5.70;99.90;;;;;;4898507;29;20178;-83
2020/12/11 08:26:05;;;;;;;5.47;4.47;;;5.70;99.90;;;;;;4916948;29;20760;-81
2020/12/11 08:28:30;;;;;;;4.97;4.00;;;5.80;99.90;;;;;;4917616;29;20181;-81
2020/12/11 08:30:56;;;;;;;6.10;4.30;;;5.80;99.90;;;;;;4917008;29;20169;-85
2020/12/11 08:33:24;;;;;;;5.87;3.83;;;5.90;99.90;;;;;;4916481;29;20217;-84
2020/12/11 08:35:51;;;;;;;5.97;4.00;;;5.90;99.90;;;;;;4918316;29;20638;-86
2020/12/11 08:38:16;;;;;;;5.47;4.07;;;5.90;99.90;;;;;;4917427;29;20188;-85
2020/12/11 08:40:47;;;;;;;6.87;4.43;;;5.90;99.90;;;;;;4918135;29;20213;-85
2020/12/11 08:43:25;;;;;;;6.00;4.17;;;5.90;99.90;;;;;;4916864;29;20198;-81
2020/12/11 08:48:33;;;;;;;6.20;4.20;;;6.00;99.90;;;;;;4918953;29;20185;-86
2020/12/11 08:51:04;;;;;;;4.37;3.57;;;6.10;99.90;;;;;;4916212;29;20288;-82
2020/12/11 08:53:34;;;;;;;5.77;3.47;;;6.00;99.90;;;;;;4915818;29;20223;-84
2020/12/11 08:56:05;;;;;;;5.50;3.57;;;6.00;99.90;;;;;;4911427;29;20206;-82
2020/12/11 08:58:30;;;;;;;3.97;3.27;;;5.90;99.90;;;;;;4898132;29;20226;-83
2020/12/11 09:00:56;;;;;;;5.40;4.40;;;6.00;99.90;;;;;;4899031;29;20212;-87
2020/12/11 09:03:21;;;;;;;4.60;3.67;;;6.00;99.90;;;;;;4903605;29;20277;-86
2020/12/11 09:05:47;;;;;;;4.83;3.53;;;5.90;99.90;;;;;;4902451;29;20269;-82
2020/12/11 09:08:13;;;;;;;5.17;3.77;;;5.90;99.90;;;;;;4902555;29;20181;-82
2020/12/11 09:10:39;;;;;;;5.50;3.53;;;6.00;99.90;;;;;;4904549;29;20179;-86
2020/12/11 09:13:06;;;;;;;5.87;3.80;;;5.90;99.90;;;;;;4909843;29;20214;-90
2020/12/11 09:15:31;;;;;;;4.57;3.30;;;6.10;99.90;;;;;;4910219;29;20257;-81
2020/12/11 09:17:57;;;;;;;4.87;3.00;;;5.90;99.90;;;;;;4899000;29;20220;-81
2020/12/11 09:20:23;;;;;;;4.80;3.10;;;5.90;99.90;;;;;;4901954;29;20185;-80
2020/12/11 09:22:48;;;;;;;4.23;3.13;;;5.90;99.90;;;;;;4910969;29;20186;-85
2020/12/11 09:25:17;;;;;;;4.83;3.63;;;5.90;99.90;;;;;;4903133;29;20292;-82
2020/12/11 09:27:43;;;;;;;6.30;3.20;;;6.00;99.90;;;;;;4898281;29;20304;-87
2020/12/11 09:30:31;;;;;;;7.20;3.00;;;6.10;99.90;;;;;;4909516;29;20178;-81
2020/12/11 09:35:30;;;;;;;5.60;3.30;;;6.10;99.90;;;;;;4937060;28;20193;-83
2020/12/11 09:37:56;;;;;;;3.87;3.07;;;6.20;99.90;;;;;;4939386;28;20182;-82
2020/12/11 09:40:41;;;;;;;5.90;3.67;;;6.20;99.90;;;;;;4942028;28;20150;-78
2020/12/11 09:48:35;;;;;;;4.83;3.30;;;6.40;99.90;;;;;;4908041;29;20188;-87
2020/12/11 09:56:05;;;;;;;6.93;3.90;;;6.50;99.90;;;;;;4920261;29;20174;-87
2020/12/11 09:58:39;;;;;;;6.10;3.60;;;6.50;99.90;;;;;;4911889;29;20182;-87
2020/12/11 10:01:10;;;;;;;5.10;4.03;;;6.50;99.90;;;;;;4919096;29;20190;-81
2020/12/11 10:03:39;;;;;;;5.90;3.97;;;6.60;99.90;;;;;;4919706;29;20234;-84
2020/12/11 10:06:08;;;;;;;5.77;3.80;;;6.60;99.90;;;;;;4905707;29;20178;-82
2020/12/11 10:08:35;;;;;;;5.73;3.43;;;6.80;99.90;;;;;;4903857;29;20178;-84
2020/12/11 10:11:01;;;;;;;6.67;3.80;;;6.70;99.90;;;;;;4909137;29;20189;-82
2020/12/11 10:13:43;;;;;;;5.40;3.63;;;6.70;99.90;;;;;;4905058;29;20218;-86
2020/12/11 10:16:16;;;;;;;8.37;4.10;;;6.70;99.90;;;;;;4922898;29;20184;-85
2020/12/11 10:18:42;;;;;;;5.37;3.57;;;6.70;99.90;;;;;;4907232;29;20171;-87
2020/12/11 10:21:11;;;;;;;7.07;4.07;;;6.80;99.90;;;;;;4904970;29;20182;-81
2020/12/11 10:23:43;;;;;;;7.60;4.37;;;6.90;99.90;;;;;;4917247;29;20186;-83
2020/12/11 10:26:11;;;;;;;7.87;5.10;;;6.80;99.90;;;;;;4931602;29;20268;-82
2020/12/11 10:28:36;;;;;;;7.77;4.93;;;7.00;99.90;;;;;;4928633;29;20197;-80
2020/12/11 10:31:02;;;;;;;6.30;4.13;;;7.00;99.90;;;;;;4928479;29;20197;-81
2020/12/11 10:33:28;;;;;;;5.57;4.13;;;7.10;99.90;;;;;;4927918;29;20277;-81
2020/12/11 10:35:53;;;;;;;5.73;4.00;;;7.00;99.90;;;;;;4935883;29;20185;-83
2020/12/11 10:38:19;;;;;;;6.53;4.13;;;7.00;99.90;;;;;;4929209;29;20249;-87
2020/12/11 10:40:45;;;;;;;5.87;4.13;;;7.00;99.90;;;;;;4927718;29;20202;-86
2020/12/11 10:43:10;;;;;;;5.00;3.37;;;7.00;99.90;;;;;;4935427;28;20186;-83
2020/12/11 10:45:36;;;;;;;5.40;3.60;;;7.10;99.90;;;;;;4932423;29;20170;-84
2020/12/11 10:48:02;;;;;;;5.13;3.67;;;7.30;99.90;;;;;;4929154;29;20177;-83
2020/12/11 10:50:27;;;;;;;5.33;3.53;;;7.10;99.90;;;;;;4921181;29;20214;-84
2020/12/11 10:52:53;;;;;;;4.67;3.23;;;7.20;99.90;;;;;;4933673;29;20213;-85
2020/12/11 10:55:19;;;;;;;4.03;2.70;;;7.10;99.90;;;;;;4927970;29;20201;-84
2020/12/11 10:57:47;;;;;;;3.80;2.50;;;6.90;99.90;;;;;;4921078;29;20173;-82
2020/12/11 11:00:13;;;;;;;4.07;2.67;;;7.00;99.90;;;;;;4920453;29;20213;-84
2020/12/11 11:02:42;;;;;;;5.60;3.67;;;7.10;99.90;;;;;;4920135;29;20240;-85
2020/12/11 11:05:08;;;;;;;3.57;2.60;;;7.10;99.90;;;;;;4913616;29;20188;-81
2020/12/11 11:07:34;;;;;;;3.73;2.30;;;7.10;99.90;;;;;;4913604;29;20154;-83
2020/12/11 11:13:01;;;;;;;5.63;3.73;;;7.10;99.90;;;;;;4910424;29;20221;-86
2020/12/11 11:15:44;;;;;;;5.63;3.77;;;7.10;99.90;;;;;;4905400;29;20213;-87
2020/12/11 11:28:53;;;;;;;4.83;3.33;;;7.50;99.90;;;;;;4918110;29;20238;-82
2020/12/11 11:31:22;;;;;;;3.93;2.70;;;7.50;99.90;;;;;;4929071;29;20178;-84
2020/12/11 11:34:29;;;;;;;4.77;2.47;;;7.60;99.90;;;;;;4926209;29;20209;-86
2020/12/11 11:37:11;;;;;;;4.20;2.60;;;7.60;99.90;;;;;;4923190;29;20174;-83
2020/12/11 11:39:37;;;;;;;4.43;2.60;;;7.50;99.90;;;;;;4923907;29;20180;-81
2020/12/11 11:42:03;;;;;;;4.33;3.10;;;7.50;99.90;;;;;;4924399;29;20582;-84
2020/12/11 11:47:04;;;;;;;3.93;2.90;;;7.50;99.90;;;;;;4926634;29;20166;-86
2020/12/11 11:49:38;;;;;;;3.43;2.63;;;7.50;99.90;;;;;;4923904;29;20177;-87
2020/12/11 11:54:48;;;;;;;3.40;2.30;;;7.50;99.90;;;;;;4929114;29;20277;-85
2020/12/11 11:57:13;;;;;;;4.47;2.10;;;7.50;99.90;;;;;;4920909;29;20626;-84
2020/12/11 11:59:40;;;;;;;4.60;2.33;;;7.50;99.90;;;;;;4924631;29;20190;-86
2020/12/11 12:02:06;;;;;;;3.77;3.00;;;7.60;99.90;;;;;;4928282;29;20657;-86
2020/12/11 12:04:32;;;;;;;4.33;2.90;;;7.80;99.90;;;;;;4924534;29;20178;-83
2020/12/11 12:06:58;;;;;;;4.73;2.83;;;7.90;99.90;;;;;;4918831;29;20178;-82
2020/12/11 12:09:23;;;;;;;7.23;3.07;;;8.00;99.90;;;;;;4913924;29;20205;-83
2020/12/11 12:11:49;;;;;;;4.10;2.70;;;8.00;99.90;;;;;;4891126;29;20218;-87
2020/12/11 12:14:16;;;;;;;7.30;3.10;;;7.90;99.90;;;;;;4909069;29;20270;-84
2020/12/11 12:16:43;;;;;;;5.43;3.40;;;8.00;99.90;;;;;;4901540;29;20242;-88
2020/12/11 12:19:14;;;;;;;6.70;3.30;;;8.10;99.90;;;;;;4902788;29;20648;-83
2020/12/11 12:29:48;;;;;;;4.20;3.00;;;8.10;99.90;;;;;;4865237;29;20196;-86
2020/12/11 12:32:17;;;;;;;5.03;3.40;;;8.00;99.90;;;;;;4920545;29;20193;-84
2020/12/11 12:35:10;;;;;;;5.13;3.70;;;8.00;99.90;;;;;;4929723;29;20250;-83
2020/12/11 12:37:38;;;;;;;5.10;3.10;;;8.00;99.90;;;;;;4922879;29;20257;-86
2020/12/11 12:45:33;;;;;;;4.80;3.37;;;7.90;99.90;;;;;;4932684;29;20188;-88
2020/12/11 12:48:01;;;;;;;4.70;2.90;;;7.90;99.90;;;;;;4920805;29;20648;-85
2020/12/11 12:50:28;;;;;;;4.70;3.30;;;8.00;99.90;;;;;;4928547;29;20200;-88
2020/12/11 12:52:54;;;;;;;6.47;3.20;;;8.00;99.90;;;;;;4923612;29;20205;-87
2020/12/11 12:56:31;;;;;;;5.23;3.57;;;8.00;99.90;;;;;;4923049;29;20178;-85
2020/12/11 12:58:37;;;;;;;4.30;3.10;;;7.90;99.90;;;;;;4923092;29;20180;-85
2020/12/11 13:01:15;;;;;;;4.33;2.83;;;7.90;99.90;;;;;;4921547;29;20177;-85
2020/12/11 13:04:04;;;;;;;5.37;3.00;;;7.90;99.90;;;;;;4924593;29;20182;-86
2020/12/11 13:06:30;;;;;;;4.53;3.33;;;8.00;99.90;;;;;;4929707;29;20193;-88
2020/12/11 13:08:57;;;;;;;3.73;2.87;;;8.10;99.90;;;;;;4935514;28;20194;-85
2020/12/11 13:11:22;;;;;;;8.10;4.70;;;8.20;99.90;;;;;;4937503;28;20188;-82
2020/12/11 13:13:51;;;;;;;6.70;3.67;;;8.30;99.90;;;;;;4929970;29;20217;-85
2020/12/11 13:16:20;;;;;;;4.90;2.80;;;8.30;99.90;;;;;;4933482;29;20162;-85
2020/12/11 13:18:52;;;;;;;6.20;3.47;;;8.20;99.90;;;;;;4931775;29;20181;-87
2020/12/11 13:21:22;;;;;;;5.47;3.30;;;8.10;99.90;;;;;;4936224;29;20170;-83
2020/12/11 13:26:41;;;;;;;6.10;4.20;;;8.00;99.90;;;;;;4934184;29;20220;-83
2020/12/11 13:29:08;;;;;;;6.43;3.83;;;8.10;99.90;;;;;;4935752;29;20166;-85
2020/12/11 13:31:36;;;;;;;4.10;2.83;;;8.10;99.90;;;;;;4943660;28;20217;-84
2020/12/11 13:34:01;;;;;;;4.87;2.87;;;8.10;99.90;;;;;;4943232;28;20209;-81
2020/12/11 13:36:27;;;;;;;4.67;3.30;;;8.20;99.90;;;;;;4939572;29;20701;-82
2020/12/11 13:38:54;;;;;;;4.37;3.23;;;8.30;99.90;;;;;;4940892;29;20233;-82
2020/12/11 13:41:19;;;;;;;4.80;3.23;;;8.30;99.90;;;;;;4940983;29;20221;-81
2020/12/11 13:43:47;;;;;;;5.03;3.90;;;8.30;99.90;;;;;;4937682;29;20181;-84
2020/12/11 13:46:12;;;;;;;5.87;3.70;;;8.30;99.90;;;;;;4928542;29;20204;-85
2020/12/11 13:48:38;;;;;;;5.07;3.80;;;8.50;99.90;;;;;;4932660;29;20186;-85